Norman, OK (73019)

6:26 AM CST on March 01, 2015 (GMT -0600)
West Brooks Street | Change Station
CLOSE
Current Station
Personal Weather Station
Location: Norman, OK
Elevation: 1171 ft
Nearby Weather Stations
Active Advisory: Winter Weather Advisory Active Notice: Local Storm Report

Elev 1171 ft 35.21 °N, 97.46 °W | Updated 59 seconds ago

Overcast
Overcast
31.1 °F
Feels Like 31 °F
N
-
Wind Variable Wind from North

Today
High -- | Low -- °F
--% Chance of Precip.
Yesterday
High -- | Low -- °F
Precip. -- in
6:59 AM 6:25 PM
Waxing Gibbous, 85% visible
Pressure 30.33 in
Visibility 5.0 miles
Clouds Overcast 500 ft
Windchill 31 °F
Dew Point 26 °F
Humidity 83%
Rainfall -999.00 in
Snow Depth Not available.
UV 0 out of 12
Pollen .80 out of 12
Ozone Good
PM2.5 Moderate
Flu Activity Widespread
METAR KOUN 011215Z AUTO 00000KT 5SM BR OVC005 M02/M02 A3033 RMK AO2

More Conditions Fewer Conditions

Pressure 30.33 in
Visibility 5.0 miles
Clouds Overcast 500 ft
Windchill 31 °F
Dew Point 26 °F
Humidity 83%
Rainfall -999.00 in
Snow Depth Not available.
UV 0 out of 12
Pollen .80 out of 12
Ozone Good
PM2.5 Moderate
Flu Activity Widespread
METAR KOUN 011215Z AUTO 00000KT 5SM BR OVC005 M02/M02 A3033 RMK AO2

More Conditions Fewer Conditions

10-Day Weather Forecast

Almanac

Astronomy

Mar. 01, 2015 Rise Set
Actual Time 6:59 AM CST 6:25 PM CST
Civil Twilight 6:34 AM CST 6:50 PM CST
Nautical Twilight 6:04 AM CST 7:20 PM CST
Astronomical Twilight 5:35 AM CST 7:49 PM CST
Moon 3:06 PM CST 4:18 AM CST
Length of Visible Light 12h 16m
Length of Day
11h 25m
Tomorrow will be 2m 12s longer.
Waxing Gibbous, 85% of the Moon is Illuminated
Today
Waxing Gibbous
Mar 5
Full
Mar 13
Last Quarter
Mar 20
New
Mar 27
First Quarter

Today's Extremes

State Highs State Lows

Community

WunderPhotos

Upload Photos

1,801,365 photos uploaded!

Nearby

Air Quality

  Air Quality AQ Index Pollutant
Yesterday Good
PM2.5
Yesterday Good
OZONE
Current Moderate
PM2.5
Current Good
OZONE
Sunday Good
PM2.5
Sunday Good
OZONE
Monday Good
PM2.5
Monday Good
OZONE

Snow Depth

Station Depth Elevation
No new snow has been reported.

Earthquake Activity

City Distance Mag. Time & Date
Cushing, Oklahoma 63 miles 3.0 2:58 AM CST
2015-03-01
Medford, Oklahoma 119 miles 2.6 2:16 AM CST
2015-03-01
Crescent, Oklahoma 62 miles 2.6 11:15 PM CST
2015-02-28
Anthony, Kansas 131 miles 3.5 8:47 PM CST
2015-02-28
Minimum magnitude displayed is 2.5.

Coastal Water Temperatures

Place Temperature
No Stations Reporting

Nearby Weather Stations